createdAt,value
2018-11-14T00:02:11.768Z,25.23
2018-11-14T00:04:40.238Z,37.50
2018-11-14T00:07:08.674Z,29.10
2018-11-14T00:09:37.176Z,28.83
2018-11-14T00:12:06.107Z,47.17
2018-11-14T00:14:34.547Z,40.03
2018-11-14T00:17:03.300Z,35.43
2018-11-14T00:19:31.782Z,37.80
2018-11-14T00:22:00.226Z,43.30
2018-11-14T00:24:28.789Z,45.13
2018-11-14T00:26:57.224Z,41.67
2018-11-14T00:29:25.688Z,35.57
2018-11-14T00:31:54.175Z,38.42
2018-11-14T00:34:22.637Z,42.43
2018-11-14T00:36:51.107Z,37.13
2018-11-14T00:39:19.651Z,39.00
2018-11-14T00:41:48.119Z,46.47
2018-11-14T00:44:16.580Z,43.93
2018-11-14T00:46:45.044Z,41.07
2018-11-14T00:49:13.486Z,46.80
2018-11-14T00:51:41.959Z,38.33
2018-11-14T00:54:10.419Z,46.50
2018-11-14T00:56:38.870Z,43.00
2018-11-14T00:59:07.330Z,41.97
2018-11-14T01:01:36.092Z,43.43
2018-11-14T01:04:04.739Z,38.70
2018-11-14T01:06:33.173Z,44.40
2018-11-14T01:09:01.649Z,39.10
2018-11-14T01:11:30.264Z,40.60
2018-11-14T01:13:58.727Z,49.77
2018-11-14T01:16:27.177Z,38.73
2018-11-14T01:18:55.943Z,55.57
2018-11-14T01:21:24.614Z,40.30
2018-11-14T01:23:53.244Z,41.53
2018-11-14T01:26:21.711Z,40.60
2018-11-14T01:28:50.174Z,38.97
2018-11-14T01:31:18.818Z,52.57
2018-11-14T01:33:47.532Z,42.37
2018-11-14T01:36:16.042Z,39.90
2018-11-14T01:38:44.539Z,50.55
2018-11-14T01:41:12.987Z,35.00
2018-11-14T01:43:41.471Z,40.37
2018-11-14T01:46:10.280Z,41.10
2018-11-14T01:48:38.779Z,44.90
2018-11-14T01:51:07.544Z,45.40
2018-11-14T01:53:36.003Z,44.57
2018-11-14T01:56:04.748Z,44.80
2018-11-14T01:58:33.351Z,41.73
2018-11-14T02:01:01.812Z,47.57
2018-11-14T02:03:30.374Z,48.03
2018-11-14T02:05:59.168Z,46.27
2018-11-14T02:08:27.703Z,45.40
2018-11-14T02:10:56.175Z,43.35
2018-11-14T02:13:24.655Z,51.40
2018-11-14T02:15:53.180Z,51.33
2018-11-14T02:18:21.673Z,50.73
2018-11-14T02:20:50.166Z,54.87
2018-11-14T02:23:18.623Z,55.80
2018-11-14T02:25:47.070Z,54.20
2018-11-14T02:28:15.578Z,49.90
2018-11-14T02:30:44.085Z,50.17
2018-11-14T02:33:12.609Z,46.53
2018-11-14T02:35:41.109Z,46.93
2018-11-14T02:38:09.587Z,48.33
2018-11-14T02:40:38.095Z,41.17
2018-11-14T02:43:06.919Z,39.43
2018-11-14T02:45:35.399Z,46.87
2018-11-14T02:48:03.931Z,39.13
2018-11-14T02:50:32.519Z,44.67
2018-11-14T02:53:01.232Z,44.63
2018-11-14T02:55:29.688Z,48.87
2018-11-14T02:57:58.152Z,41.63
2018-11-14T03:00:26.663Z,53.17
2018-11-14T03:02:55.424Z,44.53
2018-11-14T03:05:23.928Z,48.27
2018-11-14T03:07:52.420Z,44.53
2018-11-14T03:10:21.953Z,46.83
2018-11-14T03:12:50.479Z,50.85
2018-11-14T03:15:22.724Z,55.73
2018-11-14T03:17:51.268Z,49.48
2018-11-14T03:20:21.153Z,58.30
2018-11-14T03:22:49.679Z,65.30
2018-11-14T03:25:18.191Z,61.47
2018-11-14T03:27:46.663Z,48.75
2018-11-14T03:30:16.500Z,44.10
2018-11-14T03:32:45.483Z,45.73
2018-11-14T03:35:14.596Z,48.50
2018-11-14T03:37:43.078Z,60.50
2018-11-14T03:40:14.334Z,62.17
2018-11-14T03:42:42.872Z,47.40
2018-11-14T03:45:12.735Z,51.73
2018-11-14T03:47:41.923Z,55.80
2018-11-14T03:50:11.032Z,56.37
2018-11-14T03:52:40.581Z,56.80
2018-11-14T03:55:09.068Z,63.57
2018-11-14T03:57:37.599Z,60.90
2018-11-14T04:00:09.105Z,61.23
2018-11-14T04:02:37.632Z,84.40
2018-11-14T04:05:06.674Z,78.50
2018-11-14T04:07:35.146Z,72.37
2018-11-14T04:10:03.658Z,66.90
2018-11-14T04:12:32.121Z,75.62
2018-11-14T04:15:00.579Z,68.07
2018-11-14T04:17:29.377Z,69.67
2018-11-14T04:19:58.446Z,78.70
2018-11-14T04:22:26.953Z,87.97
2018-11-14T04:24:55.448Z,86.77
2018-11-14T04:27:23.935Z,75.87
2018-11-14T04:29:52.560Z,109.57
2018-11-14T04:32:21.020Z,80.30
2018-11-14T04:34:49.548Z,107.03
2018-11-14T04:37:18.071Z,129.23
2018-11-14T04:39:47.055Z,275.37
2018-11-14T04:42:46.193Z,269.27
2018-11-14T04:45:18.307Z,184.93
2018-11-14T04:47:46.926Z,243.22
2018-11-14T04:50:17.719Z,145.10
2018-11-14T04:52:47.292Z,202.63
2018-11-14T04:55:17.163Z,233.17
2018-11-14T04:57:45.954Z,187.80
2018-11-14T05:00:15.496Z,370.00
2018-11-14T05:02:44.682Z,345.43
2018-11-14T05:05:15.755Z,397.47
2018-11-14T05:07:44.250Z,588.50
2018-11-14T05:10:17.091Z,396.93
2018-11-14T05:12:45.890Z,414.57
2018-11-14T05:15:15.809Z,190.20
2018-11-14T05:17:45.019Z,258.83
2018-11-14T05:20:14.608Z,346.77
2018-11-14T05:22:43.614Z,144.37
2018-11-14T05:25:12.162Z,639.37
2018-11-14T05:27:40.987Z,389.73
2018-11-14T05:30:11.624Z,394.83
2018-11-14T05:32:40.124Z,428.02
2018-11-14T05:35:10.092Z,444.53
2018-11-14T05:37:39.112Z,228.23
2018-11-14T05:40:10.782Z,342.18
2018-11-14T05:42:39.878Z,298.13
2018-11-14T05:45:10.745Z,296.98
2018-11-14T05:47:39.408Z,505.73
2018-11-14T05:50:12.090Z,219.10
2018-11-14T05:52:40.887Z,287.37
2018-11-14T05:55:10.382Z,279.40
2018-11-14T05:57:39.247Z,270.73
2018-11-14T06:00:12.884Z,298.70
2018-11-14T06:02:41.353Z,364.80
2018-11-14T06:05:10.363Z,337.07
2018-11-14T06:07:39.470Z,407.00
2018-11-14T06:10:09.860Z,240.43
2018-11-14T06:12:38.374Z,571.00
2018-11-14T06:15:10.189Z,307.73
2018-11-14T06:17:38.710Z,296.77
2018-11-14T06:20:08.807Z,565.30
2018-11-14T06:22:37.313Z,246.33
2018-11-14T06:25:17.356Z,538.13
2018-11-14T06:27:45.844Z,242.37
2018-11-14T06:30:14.334Z,388.43
2018-11-14T06:32:42.872Z,292.00
2018-11-14T06:35:11.384Z,385.43
2018-11-14T06:37:39.908Z,421.47
2018-11-14T06:40:10.459Z,265.10
2018-11-14T06:42:39.739Z,281.67
2018-11-14T06:45:11.193Z,290.05
2018-11-14T06:47:40.194Z,274.77
2018-11-14T06:50:09.867Z,232.70
2018-11-14T06:52:38.782Z,207.87
2018-11-14T06:55:09.239Z,327.15
2018-11-14T06:57:38.062Z,269.83
2018-11-14T07:00:10.335Z,189.93
2018-11-14T07:02:38.847Z,261.13
2018-11-14T07:05:10.194Z,188.07
2018-11-14T07:07:38.704Z,141.70
2018-11-14T07:10:09.074Z,111.62
2018-11-14T07:12:37.604Z,83.43
2018-11-14T07:15:09.101Z,192.72
2018-11-14T07:17:37.759Z,155.30
2018-11-14T07:20:09.390Z,446.42
2018-11-14T07:22:37.829Z,211.50
2018-11-14T07:25:06.767Z,370.80
2018-11-14T07:27:35.225Z,309.40
2018-11-14T07:30:04.190Z,406.07
2018-11-14T07:32:33.341Z,551.23
2018-11-14T07:35:01.805Z,395.93
2018-11-14T07:37:30.334Z,594.23
2018-11-14T07:39:58.871Z,546.48
2018-11-14T07:42:27.581Z,522.10
2018-11-14T07:44:56.112Z,233.35
2018-11-14T07:47:24.617Z,270.03
2018-11-14T07:49:53.484Z,483.20
2018-11-14T07:52:21.945Z,469.77
2018-11-14T07:54:50.463Z,161.77
2018-11-14T07:57:18.928Z,137.53
2018-11-14T07:59:47.517Z,146.23
2018-11-14T08:02:16.261Z,260.27
2018-11-14T08:04:44.719Z,225.07
2018-11-14T08:07:13.206Z,236.27
2018-11-14T08:09:41.719Z,185.87
2018-11-14T08:12:10.224Z,113.90
2018-11-14T08:14:38.739Z,134.70
2018-11-14T08:17:07.224Z,148.97
2018-11-14T08:19:36.052Z,181.73
2018-11-14T08:22:04.874Z,223.77
2018-11-14T08:24:33.368Z,343.70
2018-11-14T08:27:01.892Z,441.33
2018-11-14T08:29:30.593Z,435.67
2018-11-14T08:31:59.100Z,410.40
2018-11-14T08:34:27.573Z,401.13
2018-11-14T08:36:56.112Z,411.03
2018-11-14T08:39:24.865Z,408.57
2018-11-14T08:41:53.285Z,438.10
2018-11-14T08:44:21.851Z,261.60
2018-11-14T08:46:50.326Z,222.47
2018-11-14T08:49:18.840Z,205.60
2018-11-14T08:51:47.296Z,148.63
2018-11-14T08:54:16.039Z,111.97
2018-11-14T08:56:44.547Z,119.10
2018-11-14T08:59:13.255Z,112.73
2018-11-14T09:01:41.748Z,133.93
2018-11-14T09:04:10.286Z,135.50
2018-11-14T09:06:38.759Z,121.00
2018-11-14T09:09:09.314Z,143.33
2018-11-14T09:11:37.761Z,194.20
2018-11-14T09:14:07.062Z,117.13
2018-11-14T09:16:35.948Z,117.73
2018-11-14T09:19:04.720Z,101.27
2018-11-14T09:21:33.236Z,128.27
2018-11-14T09:24:01.837Z,96.57
2018-11-14T09:26:30.378Z,104.65
2018-11-14T09:28:58.884Z,94.90
2018-11-14T09:31:27.367Z,112.37
2018-11-14T09:33:55.840Z,102.13
2018-11-14T09:36:24.512Z,111.73
2018-11-14T09:38:52.948Z,102.33
2018-11-14T09:41:21.488Z,92.27
2018-11-14T09:43:50.015Z,98.00
2018-11-14T09:46:18.915Z,85.63
2018-11-14T09:48:47.408Z,100.83
2018-11-14T09:51:16.100Z,117.33
2018-11-14T09:53:44.610Z,83.27
2018-11-14T09:56:13.197Z,88.30
2018-11-14T09:58:41.692Z,93.23
2018-11-14T10:01:10.240Z,86.63
2018-11-14T10:03:38.758Z,95.37
2018-11-14T10:06:07.292Z,73.20
2018-11-14T10:08:36.043Z,83.47
2018-11-14T10:11:04.512Z,57.90
2018-11-14T10:13:33.128Z,61.33
2018-11-14T10:16:01.622Z,66.70
2018-11-14T10:18:30.184Z,67.27
2018-11-14T10:20:58.669Z,62.30
2018-11-14T10:23:27.371Z,71.83
2018-11-14T10:25:56.071Z,73.93
2018-11-14T10:28:24.530Z,66.33
2018-11-14T10:30:53.032Z,71.27
2018-11-14T10:33:21.489Z,75.35
2018-11-14T10:35:49.972Z,75.07
2018-11-14T10:38:18.437Z,64.07
2018-11-14T10:40:47.140Z,52.50
2018-11-14T10:43:15.644Z,57.30
2018-11-14T10:45:44.104Z,58.40
2018-11-14T10:48:12.782Z,54.00
2018-11-14T10:50:41.374Z,60.43
2018-11-14T10:53:09.860Z,58.77
2018-11-14T10:55:38.318Z,35.97
2018-11-14T10:58:06.860Z,40.80
2018-11-14T11:00:40.534Z,29.13
2018-11-14T11:03:17.100Z,34.63
2018-11-14T11:05:51.023Z,32.73
2018-11-14T11:08:24.736Z,30.90
2018-11-14T11:10:58.504Z,34.60
2018-11-14T11:13:32.351Z,30.67
2018-11-14T11:16:06.081Z,44.73
2018-11-14T11:18:35.215Z,27.83
2018-11-14T11:21:03.704Z,25.77
2018-11-14T11:23:32.281Z,27.43
2018-11-14T11:26:00.727Z,19.23
2018-11-14T11:28:29.354Z,28.50
2018-11-14T11:30:57.885Z,35.70
2018-11-14T11:33:26.350Z,23.17
2018-11-14T11:35:54.858Z,31.33
2018-11-14T11:38:23.460Z,25.37
2018-11-14T11:40:51.908Z,24.73
2018-11-14T11:43:20.594Z,23.57
2018-11-14T11:45:49.086Z,24.20
2018-11-14T11:48:17.599Z,24.85
2018-11-14T11:50:46.287Z,20.75
2018-11-14T11:53:14.783Z,21.77
2018-11-14T11:55:43.839Z,19.95
2018-11-14T11:58:12.324Z,28.10
2018-11-14T12:00:41.291Z,17.60
2018-11-14T12:03:09.667Z,22.60
2018-11-14T12:05:38.148Z,18.33
2018-11-14T12:08:06.667Z,23.40
2018-11-14T12:10:35.168Z,17.73
2018-11-14T12:13:03.704Z,15.93
2018-11-14T12:15:32.170Z,20.00
2018-11-14T12:18:01.229Z,18.23
2018-11-14T12:20:29.696Z,16.83
2018-11-14T12:22:58.206Z,18.63
2018-11-14T12:25:26.684Z,24.87
2018-11-14T12:27:55.235Z,21.83
2018-11-14T12:30:24.063Z,19.53
2018-11-14T12:32:52.765Z,18.47
2018-11-14T12:35:21.340Z,25.85
2018-11-14T12:37:49.725Z,22.20
2018-11-14T12:40:18.586Z,20.83
2018-11-14T12:42:47.091Z,24.30
2018-11-14T12:45:16.535Z,21.60
2018-11-14T12:47:45.061Z,17.33
2018-11-14T12:50:14.527Z,22.20
2018-11-14T12:52:43.706Z,19.93
2018-11-14T12:55:16.605Z,34.47
2018-11-14T12:57:45.327Z,18.10
2018-11-14T13:00:16.347Z,23.33
2018-11-14T13:02:45.156Z,17.90
2018-11-14T13:05:14.636Z,35.40
2018-11-14T13:07:43.951Z,22.97
2018-11-14T13:10:13.749Z,19.50
2018-11-14T13:12:43.796Z,16.93
2018-11-14T13:15:13.708Z,21.33
2018-11-14T13:17:43.189Z,26.33
2018-11-14T13:20:14.298Z,22.63
2018-11-14T13:22:43.143Z,21.50
2018-11-14T13:25:12.664Z,22.63
2018-11-14T13:27:42.344Z,27.20
2018-11-14T13:30:14.882Z,20.30
2018-11-14T13:32:44.048Z,17.00
2018-11-14T13:35:14.041Z,20.83
2018-11-14T13:37:43.575Z,18.83
2018-11-14T13:40:12.476Z,25.23
2018-11-14T13:42:41.448Z,21.93
2018-11-14T13:45:11.520Z,27.17
2018-11-14T13:47:40.495Z,19.23
2018-11-14T13:50:12.156Z,19.70
2018-11-14T13:52:40.950Z,18.50
2018-11-14T13:55:11.760Z,18.80
2018-11-14T13:57:40.995Z,20.93
2018-11-14T14:00:11.115Z,25.00
2018-11-14T14:02:39.596Z,23.63
2018-11-14T14:05:10.420Z,35.10
2018-11-14T14:07:39.047Z,28.20
2018-11-14T14:10:08.737Z,31.00
2018-11-14T14:12:37.536Z,30.07
2018-11-14T14:15:08.657Z,22.53
2018-11-14T14:17:37.148Z,21.67
2018-11-14T14:20:07.241Z,21.03
2018-11-14T14:22:35.667Z,23.87
2018-11-14T14:25:04.439Z,30.80
2018-11-14T14:27:32.925Z,28.75
2018-11-14T14:30:01.446Z,26.10
2018-11-14T14:32:29.934Z,25.23
2018-11-14T14:34:58.439Z,26.33
2018-11-14T14:37:26.882Z,22.17
2018-11-14T14:39:55.396Z,28.00
2018-11-14T14:42:23.891Z,27.23
2018-11-14T14:44:52.903Z,24.82
2018-11-14T14:47:21.685Z,24.50
2018-11-14T14:49:50.677Z,25.27
2018-11-14T14:52:19.324Z,25.83
2018-11-14T14:54:47.835Z,24.05
2018-11-14T14:57:16.453Z,27.93
2018-11-14T14:59:44.948Z,31.80
2018-11-14T15:02:13.541Z,30.30
2018-11-14T15:04:42.997Z,26.70
2018-11-14T15:07:11.500Z,32.70
2018-11-14T15:09:40.020Z,33.67
2018-11-14T15:12:08.628Z,34.35
2018-11-14T15:14:37.104Z,31.83
2018-11-14T15:17:05.892Z,35.83
2018-11-14T15:19:34.362Z,33.00
2018-11-14T15:22:02.863Z,38.45
2018-11-14T15:24:31.355Z,30.83
2018-11-14T15:26:59.890Z,36.47
2018-11-14T15:29:28.350Z,34.07
2018-11-14T15:31:56.833Z,29.00
2018-11-14T15:34:25.305Z,31.83
2018-11-14T15:36:53.775Z,49.87
2018-11-14T15:39:22.235Z,47.07
2018-11-14T15:41:50.754Z,41.33
2018-11-14T15:44:19.274Z,39.73
2018-11-14T15:46:47.749Z,40.70
2018-11-14T15:49:16.252Z,44.45
2018-11-14T15:51:44.903Z,49.73
2018-11-14T15:54:13.312Z,46.02
2018-11-14T15:56:41.796Z,45.97
2018-11-14T15:59:10.283Z,39.42
2018-11-14T16:01:38.772Z,51.53
2018-11-14T16:04:07.379Z,52.67
2018-11-14T16:06:35.976Z,48.77
2018-11-14T16:09:06.567Z,51.92
2018-11-14T16:11:35.076Z,51.80
2018-11-14T16:14:04.563Z,55.58
2018-11-14T16:16:33.134Z,56.50
2018-11-14T16:19:01.922Z,68.93
2018-11-14T16:21:30.380Z,67.87
2018-11-14T16:23:58.847Z,54.17
2018-11-14T16:26:27.557Z,58.23
2018-11-14T16:28:56.020Z,75.50
2018-11-14T16:31:24.806Z,74.93
2018-11-14T16:33:53.296Z,64.53
2018-11-14T16:36:21.852Z,66.00
2018-11-14T16:38:50.514Z,80.80
2018-11-14T16:41:18.974Z,74.97
2018-11-14T16:43:47.516Z,82.20
2018-11-14T16:46:16.063Z,78.30
2018-11-14T16:48:44.882Z,75.87
2018-11-14T16:51:13.524Z,97.33
2018-11-14T16:53:42.068Z,90.63
2018-11-14T16:56:10.611Z,106.63
2018-11-14T16:58:39.448Z,104.80
2018-11-14T17:01:07.883Z,115.17
2018-11-14T17:03:37.171Z,115.35
2018-11-14T17:06:05.739Z,131.03
2018-11-14T17:08:34.261Z,111.03
2018-11-14T17:11:02.825Z,106.53
2018-11-14T17:13:31.416Z,109.20
2018-11-14T17:15:59.914Z,171.10
2018-11-14T17:18:28.643Z,114.37
2018-11-14T17:20:57.136Z,100.90
2018-11-14T17:23:25.633Z,102.17
2018-11-14T17:25:54.150Z,117.57
2018-11-14T17:28:22.675Z,131.93
2018-11-14T17:30:51.185Z,111.07
2018-11-14T17:33:19.951Z,127.80
2018-11-14T17:35:48.490Z,98.27
2018-11-14T17:38:16.913Z,114.17
2018-11-14T17:40:45.406Z,103.77
2018-11-14T17:43:13.853Z,111.63
2018-11-14T17:45:42.484Z,109.83
2018-11-14T17:48:11.101Z,93.67
2018-11-14T17:50:39.785Z,86.83
2018-11-14T17:53:08.312Z,125.78
2018-11-14T17:55:37.078Z,107.47
2018-11-14T17:58:05.536Z,130.47
2018-11-14T18:00:34.032Z,151.55
2018-11-14T18:03:02.583Z,223.40
2018-11-14T18:05:32.028Z,103.67
2018-11-14T18:08:00.529Z,123.23
2018-11-14T18:10:30.448Z,119.55
2018-11-14T18:13:00.004Z,135.85
2018-11-14T18:15:28.561Z,260.60
2018-11-14T18:17:57.516Z,372.97
2018-11-14T18:20:27.550Z,159.80
2018-11-14T18:22:56.581Z,155.63
2018-11-14T18:25:25.411Z,107.13
2018-11-14T18:27:53.904Z,336.83
2018-11-14T18:30:28.887Z,294.67
2018-11-14T18:32:58.394Z,426.40
2018-11-14T18:35:27.716Z,625.27
2018-11-14T18:37:57.154Z,149.10
2018-11-14T18:40:27.184Z,336.63
2018-11-14T18:42:55.934Z,320.73
2018-11-14T18:45:27.776Z,358.27
2018-11-14T18:47:57.253Z,278.93
2018-11-14T18:50:26.116Z,396.30
2018-11-14T18:52:54.732Z,439.47
2018-11-14T18:55:24.911Z,408.60
2018-11-14T18:57:53.730Z,404.13
2018-11-14T19:00:26.619Z,441.03
2018-11-14T19:02:55.141Z,286.90
2018-11-14T19:05:23.610Z,396.30
2018-11-14T19:07:52.136Z,302.27
2018-11-14T19:10:22.409Z,272.40
2018-11-14T19:13:21.569Z,151.93
2018-11-14T19:15:50.084Z,151.40
2018-11-14T19:18:18.581Z,365.50
2018-11-14T19:20:47.056Z,208.20
2018-11-14T19:23:15.693Z,167.00
2018-11-14T19:25:44.156Z,315.13
2018-11-14T19:28:12.691Z,346.47
2018-11-14T19:30:41.277Z,155.80
2018-11-14T19:33:09.807Z,195.37
2018-11-14T19:35:38.355Z,227.15
2018-11-14T19:38:06.978Z,433.20
2018-11-14T19:40:36.996Z,167.98
2018-11-14T19:43:07.547Z,148.60
2018-11-14T19:45:37.434Z,164.50
2018-11-14T19:48:06.461Z,159.37
2018-11-14T19:50:35.181Z,174.93
2018-11-14T19:53:04.387Z,187.65
2018-11-14T19:55:33.736Z,138.47
2018-11-14T19:58:03.649Z,125.03
2018-11-14T20:00:33.443Z,257.63
2018-11-14T20:03:01.964Z,130.03
2018-11-14T20:05:30.465Z,99.50
2018-11-14T20:07:58.998Z,128.17
2018-11-14T20:10:30.194Z,79.17
2018-11-14T20:12:58.630Z,91.43
2018-11-14T20:15:32.746Z,114.75
2018-11-14T20:18:01.283Z,135.03
2018-11-14T20:20:31.345Z,70.03
2018-11-14T20:22:59.862Z,89.50
2018-11-14T20:25:28.400Z,68.17
2018-11-14T20:27:57.129Z,77.70
2018-11-14T20:30:27.129Z,84.20
2018-11-14T20:32:57.034Z,130.77
2018-11-14T20:35:26.547Z,78.03
2018-11-14T20:37:55.115Z,75.57
2018-11-14T20:40:24.141Z,70.87
2018-11-14T20:42:53.423Z,87.53
2018-11-14T20:45:26.331Z,106.67
2018-11-14T20:47:54.903Z,66.87
2018-11-14T20:50:24.538Z,60.00
2018-11-14T20:52:55.095Z,58.80
2018-11-14T20:55:23.611Z,54.00
2018-11-14T20:57:52.138Z,71.75
2018-11-14T21:00:22.867Z,54.00
2018-11-14T21:02:51.815Z,78.93
2018-11-14T21:05:20.633Z,67.13
2018-11-14T21:07:49.147Z,52.62
2018-11-14T21:10:19.213Z,59.67
2018-11-14T21:12:48.772Z,62.00
2018-11-14T21:15:20.415Z,54.43
2018-11-14T21:17:49.947Z,45.17
2018-11-14T21:20:18.482Z,63.33
2018-11-14T21:22:47.141Z,51.28
2018-11-14T21:25:16.922Z,49.80
2018-11-14T21:27:46.547Z,46.63
2018-11-14T21:30:16.784Z,52.17
2018-11-14T21:32:45.625Z,56.65
2018-11-14T21:35:18.576Z,49.23
2018-11-14T21:37:48.671Z,57.78
2018-11-14T21:40:17.199Z,43.93
2018-11-14T21:42:45.700Z,51.13
2018-11-14T21:45:16.816Z,39.53
2018-11-14T21:47:50.346Z,48.38
2018-11-14T21:50:20.092Z,47.93
2018-11-14T21:52:49.091Z,43.85
2018-11-14T21:55:18.395Z,39.27
2018-11-14T21:57:46.888Z,41.95
2018-11-14T22:00:19.792Z,42.73
2018-11-14T22:02:49.683Z,45.03
2018-11-14T22:05:18.299Z,35.10
2018-11-14T22:07:46.978Z,46.00
2018-11-14T22:10:17.999Z,41.83
2018-11-14T22:12:46.983Z,46.23
2018-11-14T22:15:16.512Z,35.90
2018-11-14T22:17:44.972Z,45.47
2018-11-14T22:20:14.646Z,58.23
2018-11-14T22:22:44.728Z,42.83
2018-11-14T22:25:14.570Z,40.77
2018-11-14T22:27:43.114Z,46.13
2018-11-14T22:30:17.561Z,49.20
2018-11-14T22:32:46.323Z,42.87
2018-11-14T22:35:16.184Z,39.40
2018-11-14T22:37:44.675Z,36.57
2018-11-14T22:40:15.012Z,51.25
2018-11-14T22:42:44.283Z,42.95
2018-11-14T22:45:15.243Z,42.60
2018-11-14T22:47:44.279Z,43.68
2018-11-14T22:50:14.374Z,52.30
2018-11-14T22:52:43.772Z,54.33
2018-11-14T22:55:13.355Z,35.97
2018-11-14T22:57:42.980Z,33.07
2018-11-14T23:00:21.141Z,37.47
2018-11-14T23:02:51.408Z,42.85
2018-11-14T23:05:20.370Z,40.33
2018-11-14T23:07:50.170Z,41.75
2018-11-14T23:10:20.000Z,34.77
2018-11-14T23:12:49.046Z,43.50
2018-11-14T23:15:18.132Z,40.47
2018-11-14T23:17:46.890Z,38.53
2018-11-14T23:20:16.487Z,39.40
2018-11-14T23:22:45.819Z,44.00
2018-11-14T23:25:14.844Z,52.07
2018-11-14T23:27:44.616Z,49.27
2018-11-14T23:30:14.362Z,46.50
2018-11-14T23:32:43.959Z,48.40
2018-11-14T23:35:16.656Z,57.83
2018-11-14T23:37:47.275Z,53.43
2018-11-14T23:40:15.765Z,73.30
2018-11-14T23:42:44.240Z,64.63
2018-11-14T23:45:14.171Z,68.80
2018-11-14T23:47:43.683Z,85.93
2018-11-14T23:50:16.257Z,91.00
2018-11-14T23:52:46.076Z,238.53
2018-11-14T23:55:15.365Z,359.10
2018-11-14T23:57:43.966Z,361.85
